createdAt,value
2019-02-23T00:00:45.651Z,84.39
2019-02-23T00:03:35.225Z,84.96
2019-02-23T00:06:29.876Z,84.56
2019-02-23T00:09:16.263Z,84.71
2019-02-23T00:12:05.620Z,84.38
2019-02-23T00:14:54.694Z,84.19
2019-02-23T00:17:44.896Z,83.97
2019-02-23T00:20:34.203Z,83.87
2019-02-23T00:23:23.866Z,84.46
2019-02-23T00:26:14.400Z,85.21
2019-02-23T00:29:03.777Z,85.58
2019-02-23T00:31:53.298Z,85.58
2019-02-23T00:34:42.584Z,85.21
2019-02-23T00:37:31.801Z,84.36
2019-02-23T00:40:21.142Z,84.39
2019-02-23T00:43:10.364Z,84.30
2019-02-23T00:46:00.130Z,83.85
2019-02-23T00:48:49.746Z,84.34
2019-02-23T00:51:39.292Z,84.71
2019-02-23T00:54:28.848Z,84.80
2019-02-23T00:57:18.516Z,85.35
2019-02-23T01:00:09.273Z,85.54
2019-02-23T01:02:58.827Z,85.99
2019-02-23T01:05:48.507Z,86.62
2019-02-23T01:08:38.053Z,87.02
2019-02-23T01:11:27.443Z,86.90
2019-02-23T01:14:17.098Z,87.31
2019-02-23T01:17:06.677Z,87.25
2019-02-23T01:19:57.027Z,86.67
2019-02-23T01:22:46.612Z,87.12
2019-02-23T01:25:36.135Z,87.37
2019-02-23T01:28:25.843Z,86.94
2019-02-23T01:31:15.402Z,87.50
2019-02-23T01:34:04.684Z,87.91
2019-02-23T01:36:54.017Z,87.86
2019-02-23T01:39:43.619Z,87.83
2019-02-23T01:42:33.191Z,88.13
2019-02-23T01:45:23.052Z,88.06
2019-02-23T01:48:12.473Z,88.16
2019-02-23T01:51:01.929Z,88.00
2019-02-23T01:53:51.274Z,88.38
2019-02-23T01:56:40.791Z,88.19
2019-02-23T01:59:30.123Z,87.24
2019-02-23T02:02:19.704Z,86.65
2019-02-23T02:05:09.514Z,84.54
2019-02-23T02:07:58.959Z,83.41
2019-02-23T02:10:48.229Z,83.48
2019-02-23T02:13:37.552Z,84.12
2019-02-23T02:16:27.231Z,84.00
2019-02-23T02:19:16.533Z,84.44
2019-02-23T02:22:06.888Z,85.21
2019-02-23T02:24:56.405Z,84.87
2019-02-23T02:27:45.875Z,84.18
2019-02-23T02:30:35.183Z,84.26
2019-02-23T02:33:24.515Z,84.51
2019-02-23T02:36:14.139Z,84.43
2019-02-23T02:39:05.206Z,84.39
2019-02-23T02:41:54.569Z,84.13
2019-02-23T02:44:44.365Z,83.68
2019-02-23T02:47:33.597Z,82.70
2019-02-23T02:50:24.572Z,81.60
2019-02-23T02:53:13.829Z,81.74
2019-02-23T02:56:03.478Z,81.08
2019-02-23T02:58:52.765Z,79.74
2019-02-23T03:01:42.402Z,79.82
2019-02-23T03:04:32.075Z,79.05
2019-02-23T03:07:21.739Z,79.01
2019-02-23T03:10:10.927Z,79.18
2019-02-23T03:13:00.420Z,79.21
2019-02-23T03:15:49.990Z,78.62
2019-02-23T03:18:39.342Z,79.15
2019-02-23T03:21:28.702Z,79.91
2019-02-23T03:24:18.101Z,80.21
2019-02-23T03:27:09.440Z,80.38
2019-02-23T03:29:58.970Z,80.38
2019-02-23T03:32:48.673Z,79.82
2019-02-23T03:35:38.324Z,79.23
2019-02-23T03:38:27.821Z,79.09
2019-02-23T03:41:17.293Z,79.59
2019-02-23T03:44:06.831Z,79.97
2019-02-23T03:46:56.121Z,79.08
2019-02-23T03:49:45.687Z,79.89
2019-02-23T03:52:35.325Z,80.36
2019-02-23T03:55:24.538Z,80.49
2019-02-23T03:58:14.147Z,80.27
2019-02-23T04:01:03.867Z,79.79
2019-02-23T04:03:53.356Z,79.56
2019-02-23T04:06:42.591Z,78.76
2019-02-23T04:09:31.994Z,78.64
2019-02-23T04:12:21.252Z,79.04
2019-02-23T04:15:10.767Z,78.75
2019-02-23T04:18:00.301Z,78.61
2019-02-23T04:21:01.303Z,79.52
2019-02-23T04:23:41.516Z,79.27
2019-02-23T04:26:31.050Z,79.05
2019-02-23T04:29:20.549Z,77.84
2019-02-23T04:32:10.161Z,77.76
2019-02-23T04:34:59.452Z,78.83
2019-02-23T04:37:48.735Z,79.82
2019-02-23T04:40:38.377Z,79.65
2019-02-23T04:43:27.936Z,79.78
2019-02-23T04:46:17.238Z,79.06
2019-02-23T04:49:06.938Z,79.77
2019-02-23T04:51:56.450Z,78.79
2019-02-23T04:54:45.678Z,78.90
2019-02-23T04:57:35.140Z,78.89
2019-02-23T05:00:24.830Z,79.02
2019-02-23T05:03:14.511Z,78.89
2019-02-23T05:06:03.893Z,79.32
2019-02-23T05:08:53.379Z,80.24
2019-02-23T05:11:42.924Z,79.97
2019-02-23T05:14:32.476Z,80.62
2019-02-23T05:17:22.003Z,81.45
2019-02-23T05:20:11.387Z,81.63
2019-02-23T05:23:00.886Z,81.77
2019-02-23T05:25:50.249Z,82.07
2019-02-23T05:28:40.729Z,83.06
2019-02-23T05:31:30.784Z,83.30
2019-02-23T05:34:20.495Z,83.86
2019-02-23T05:37:10.140Z,83.76
2019-02-23T05:39:59.649Z,83.75
2019-02-23T05:43:00.122Z,84.36
2019-02-23T05:45:40.128Z,84.36
2019-02-23T05:48:29.328Z,84.59
2019-02-23T05:51:18.775Z,84.79
2019-02-23T05:54:08.318Z,84.93
2019-02-23T05:56:57.640Z,85.32
2019-02-23T05:59:47.313Z,85.23
2019-02-23T06:02:36.467Z,85.28
2019-02-23T06:05:25.792Z,85.07
2019-02-23T06:08:15.020Z,85.02
2019-02-23T06:11:04.542Z,84.80
2019-02-23T06:13:53.879Z,84.95
2019-02-23T06:16:43.570Z,84.86
2019-02-23T06:19:33.203Z,84.66
2019-02-23T06:22:22.864Z,84.52
2019-02-23T06:25:12.735Z,84.42
2019-02-23T06:28:02.309Z,84.34
2019-02-23T06:30:51.890Z,84.74
2019-02-23T06:33:41.294Z,84.95
2019-02-23T06:36:31.126Z,84.95
2019-02-23T06:39:20.830Z,84.30
2019-02-23T06:42:10.103Z,83.79
2019-02-23T06:44:59.698Z,83.77
2019-02-23T06:47:48.991Z,83.10
2019-02-23T06:50:38.638Z,83.15
2019-02-23T06:53:28.137Z,81.46
2019-02-23T06:56:18.017Z,81.96
2019-02-23T06:59:07.367Z,80.72
2019-02-23T07:01:56.844Z,80.98
2019-02-23T07:04:46.249Z,81.19
2019-02-23T07:07:35.531Z,81.85
2019-02-23T07:10:24.866Z,80.70
2019-02-23T07:13:14.587Z,81.33
2019-02-23T07:16:04.271Z,81.04
2019-02-23T07:18:53.959Z,80.23
2019-02-23T07:21:43.238Z,78.75
2019-02-23T07:24:32.622Z,78.06
2019-02-23T07:27:22.101Z,76.42
2019-02-23T07:30:11.911Z,74.96
2019-02-23T07:33:01.692Z,73.92
2019-02-23T07:35:51.287Z,73.33
2019-02-23T07:38:40.525Z,74.43
2019-02-23T07:41:30.136Z,73.69
2019-02-23T07:44:19.358Z,72.83
2019-02-23T07:47:08.731Z,71.83
2019-02-23T07:49:58.349Z,72.54
2019-02-23T07:52:47.718Z,71.12
2019-02-23T07:55:37.215Z,71.28
2019-02-23T07:58:26.845Z,69.89
2019-02-23T08:01:16.394Z,69.00
2019-02-23T08:04:05.976Z,69.88
2019-02-23T08:06:55.641Z,69.99
2019-02-23T08:09:47.078Z,70.36
2019-02-23T08:12:36.455Z,68.43
2019-02-23T08:15:25.862Z,67.78
2019-02-23T08:18:15.363Z,67.76
2019-02-23T08:21:05.031Z,66.48
2019-02-23T08:23:54.699Z,67.12
2019-02-23T08:26:31.243Z,64.90
2019-02-23T08:29:03.765Z,64.70
2019-02-23T08:31:36.424Z,64.86
2019-02-23T08:34:09.533Z,64.16
2019-02-23T08:36:45.024Z,62.19
2019-02-23T08:39:16.765Z,62.98
2019-02-23T08:41:50.402Z,63.95
2019-02-23T08:44:23.199Z,63.69
2019-02-23T08:46:54.487Z,64.75
2019-02-23T08:49:25.838Z,64.16
2019-02-23T08:51:57.380Z,63.45
2019-02-23T08:54:28.683Z,62.56
2019-02-23T08:56:59.948Z,61.70
2019-02-23T08:59:32.100Z,60.57
2019-02-23T09:02:03.398Z,60.29
2019-02-23T09:04:35.010Z,60.29
2019-02-23T09:07:06.697Z,58.92
2019-02-23T09:09:38.214Z,60.16
2019-02-23T09:12:09.791Z,58.80
2019-02-23T09:14:41.264Z,58.51
2019-02-23T09:17:13.297Z,57.18
2019-02-23T09:19:44.601Z,55.79
2019-02-23T09:22:15.864Z,54.38
2019-02-23T09:24:47.347Z,55.41
2019-02-23T09:27:19.173Z,55.79
2019-02-23T09:29:50.790Z,58.89
2019-02-23T09:32:22.305Z,59.12
2019-02-23T09:34:53.928Z,59.27
2019-02-23T09:37:29.247Z,58.81
2019-02-23T09:40:01.798Z,57.93
2019-02-23T09:42:34.942Z,56.20
2019-02-23T09:45:07.894Z,57.08
2019-02-23T09:47:40.886Z,55.12
2019-02-23T09:50:12.843Z,55.98
2019-02-23T09:52:44.466Z,55.24
2019-02-23T09:55:16.046Z,53.70
2019-02-23T09:57:47.493Z,55.31
2019-02-23T10:00:18.751Z,55.16
2019-02-23T10:02:51.180Z,53.96
2019-02-23T10:05:25.132Z,53.65
2019-02-23T10:07:56.609Z,54.90
2019-02-23T10:10:28.235Z,51.48
2019-02-23T10:13:00.305Z,50.99
2019-02-23T10:15:33.737Z,54.68
2019-02-23T10:18:05.036Z,53.21
2019-02-23T10:20:41.473Z,53.42
2019-02-23T10:23:21.454Z,52.42
2019-02-23T10:25:47.311Z,53.91
2019-02-23T10:28:18.566Z,52.09
2019-02-23T10:30:50.127Z,53.98
2019-02-23T10:33:21.598Z,48.77
2019-02-23T10:35:53.104Z,51.29
2019-02-23T10:38:24.672Z,50.03
2019-02-23T10:40:55.927Z,47.82
2019-02-23T10:43:27.487Z,47.58
2019-02-23T10:45:59.759Z,51.32
2019-02-23T10:48:31.365Z,51.91
2019-02-23T10:51:03.060Z,49.24
2019-02-23T10:53:34.573Z,50.68
2019-02-23T10:56:06.204Z,47.61
2019-02-23T10:58:37.889Z,45.59
2019-02-23T11:01:09.518Z,44.38
2019-02-23T11:03:41.034Z,46.18
2019-02-23T11:06:12.917Z,45.44
2019-02-23T11:08:44.421Z,45.14
2019-02-23T11:11:15.674Z,45.73
2019-02-23T11:13:47.415Z,48.41
2019-02-23T11:16:19.616Z,45.18
2019-02-23T11:18:51.093Z,44.61
2019-02-23T11:21:22.395Z,45.69
2019-02-23T11:23:54.260Z,42.57
2019-02-23T11:26:25.873Z,44.17
2019-02-23T11:28:57.579Z,41.70
2019-02-23T11:31:29.208Z,42.61
2019-02-23T11:34:00.853Z,43.69
2019-02-23T11:36:32.608Z,45.37
2019-02-23T11:39:04.388Z,43.59
2019-02-23T11:41:35.631Z,43.44
2019-02-23T11:44:07.728Z,41.01
2019-02-23T11:46:39.289Z,40.91
2019-02-23T11:49:10.940Z,41.88
2019-02-23T11:51:42.252Z,41.32
2019-02-23T11:54:13.985Z,43.61
2019-02-23T11:56:45.570Z,43.05
2019-02-23T11:59:17.250Z,43.58
2019-02-23T12:01:48.787Z,44.55
2019-02-23T12:04:20.376Z,44.50
2019-02-23T12:06:51.817Z,43.84
2019-02-23T12:09:23.538Z,43.42
2019-02-23T12:11:55.418Z,43.13
2019-02-23T12:14:26.754Z,44.13
2019-02-23T12:16:58.242Z,44.32
2019-02-23T12:19:31.094Z,43.44
2019-02-23T12:22:12.031Z,43.27
2019-02-23T12:24:41.935Z,42.89
2019-02-23T12:27:13.836Z,42.48
2019-02-23T12:29:45.069Z,43.60
2019-02-23T12:32:16.873Z,44.98
2019-02-23T12:34:48.688Z,42.67
2019-02-23T12:37:20.279Z,42.17
2019-02-23T12:39:51.526Z,42.30
2019-02-23T12:42:23.588Z,44.33
2019-02-23T12:44:55.489Z,42.93
2019-02-23T12:47:27.084Z,42.93
2019-02-23T12:49:59.184Z,40.79
2019-02-23T12:52:30.429Z,43.03
2019-02-23T12:55:01.967Z,41.84
2019-02-23T12:57:33.531Z,42.23
2019-02-23T13:00:04.952Z,43.14
2019-02-23T13:02:36.755Z,43.93
2019-02-23T13:05:08.547Z,40.94
2019-02-23T13:07:39.926Z,41.77
2019-02-23T13:10:11.651Z,41.77
2019-02-23T13:13:33.295Z,40.65
2019-02-23T13:16:34.082Z,41.35
2019-02-23T13:20:04.810Z,39.10
2019-02-23T13:23:14.708Z,40.58
2019-02-23T13:26:05.182Z,43.46
2019-02-23T13:29:15.852Z,40.78
2019-02-23T13:32:17.203Z,41.55
2019-02-23T13:35:40.700Z,41.93
2019-02-23T13:38:38.295Z,40.13
2019-02-23T13:41:35.611Z,40.99
2019-02-23T13:45:07.516Z,41.01
2019-02-23T13:48:11.177Z,41.73
2019-02-23T13:51:12.326Z,40.85
2019-02-23T13:54:44.169Z,41.59
2019-02-23T13:57:58.005Z,40.17
2019-02-23T14:01:07.575Z,40.34
2019-02-23T14:04:08.796Z,41.24
2019-02-23T14:07:38.972Z,41.25
2019-02-23T14:10:59.342Z,40.70
2019-02-23T14:14:06.858Z,42.72
2019-02-23T14:17:04.089Z,41.35
2019-02-23T14:20:29.359Z,40.81
2019-02-23T14:23:38.658Z,40.73
2019-02-23T14:27:09.756Z,40.73
2019-02-23T14:30:08.347Z,40.40
2019-02-23T14:33:31.522Z,41.36
2019-02-23T14:36:25.828Z,42.61
2019-02-23T14:39:37.692Z,41.18
2019-02-23T14:42:51.810Z,41.04
2019-02-23T14:46:07.066Z,39.71
2019-02-23T14:48:50.024Z,41.19
2019-02-23T14:52:16.567Z,40.52
2019-02-23T14:55:12.079Z,40.70
2019-02-23T14:58:15.271Z,39.98
2019-02-23T15:01:25.589Z,40.07
2019-02-23T15:04:15.368Z,39.83
2019-02-23T15:07:22.158Z,39.83
2019-02-23T15:10:57.762Z,39.36
2019-02-23T15:14:26.174Z,39.44
2019-02-23T15:17:55.040Z,39.81
2019-02-23T15:20:47.241Z,39.46
2019-02-23T15:23:34.961Z,42.22
2019-02-23T15:26:32.346Z,39.74
2019-02-23T15:29:30.263Z,39.78
2019-02-23T15:32:58.559Z,40.71
2019-02-23T15:35:55.019Z,40.25
2019-02-23T15:39:09.509Z,39.73
2019-02-23T15:42:34.072Z,39.73
2019-02-23T15:45:41.902Z,40.78
2019-02-23T15:48:47.202Z,40.16
2019-02-23T15:51:18.605Z,40.63
2019-02-23T15:53:51.538Z,40.63
2019-02-23T15:56:23.564Z,42.92
2019-02-23T15:58:57.435Z,41.69
2019-02-23T16:01:30.236Z,43.89
2019-02-23T16:04:01.947Z,44.29
2019-02-23T16:06:35.212Z,53.11
2019-02-23T16:09:08.913Z,43.75
2019-02-23T16:11:45.103Z,42.87
2019-02-23T16:14:16.781Z,44.11
2019-02-23T16:16:48.162Z,45.16
2019-02-23T16:19:21.839Z,44.59
2019-02-23T16:21:56.230Z,45.00
2019-02-23T16:24:30.245Z,45.59
2019-02-23T16:27:05.923Z,45.10
2019-02-23T16:29:38.926Z,45.37
2019-02-23T16:32:12.249Z,45.37
2019-02-23T16:34:43.973Z,45.48
2019-02-23T16:37:16.630Z,45.42
2019-02-23T16:39:47.955Z,46.38
2019-02-23T16:42:21.630Z,46.56
2019-02-23T16:44:55.481Z,48.13
2019-02-23T16:47:27.668Z,48.86
2019-02-23T16:50:00.427Z,48.99
2019-02-23T16:52:34.424Z,49.16
2019-02-23T16:55:08.165Z,49.75
2019-02-23T16:57:43.770Z,51.13
2019-02-23T17:00:16.165Z,52.24
2019-02-23T17:02:47.856Z,52.25
2019-02-23T17:05:20.819Z,53.21
2019-02-23T17:07:53.714Z,54.65
2019-02-23T17:10:25.477Z,56.81
2019-02-23T17:12:57.553Z,57.86
2019-02-23T17:15:30.494Z,58.50
2019-02-23T17:18:01.813Z,59.39
2019-02-23T17:20:35.348Z,59.83
2019-02-23T17:23:11.595Z,59.89
2019-02-23T17:25:43.236Z,59.42
2019-02-23T17:28:17.212Z,60.35
2019-02-23T17:30:48.504Z,59.71
2019-02-23T17:33:21.961Z,60.60
2019-02-23T17:35:53.315Z,61.95
2019-02-23T17:38:26.907Z,63.11
2019-02-23T17:40:58.403Z,64.56
2019-02-23T17:43:33.329Z,66.10
2019-02-23T17:46:05.243Z,66.76
2019-02-23T17:48:37.601Z,67.85
2019-02-23T17:51:11.249Z,67.45
2019-02-23T17:53:45.072Z,68.09
2019-02-23T17:56:18.939Z,67.76
2019-02-23T17:58:52.367Z,66.88
2019-02-23T18:01:23.619Z,66.88
2019-02-23T18:03:57.790Z,66.94
2019-02-23T18:06:32.939Z,66.93
2019-02-23T18:09:05.943Z,67.27
2019-02-23T18:11:39.879Z,67.91
2019-02-23T18:14:13.320Z,68.04
2019-02-23T18:16:49.145Z,67.69
2019-02-23T18:19:23.537Z,67.08
2019-02-23T18:21:55.914Z,67.80
2019-02-23T18:24:28.960Z,68.57
2019-02-23T18:27:03.242Z,68.88
2019-02-23T18:29:36.826Z,68.36
2019-02-23T18:32:08.744Z,68.63
2019-02-23T18:34:41.846Z,68.45
2019-02-23T18:37:13.384Z,69.25
2019-02-23T18:39:47.211Z,69.40
2019-02-23T18:42:21.292Z,68.90
2019-02-23T18:44:55.168Z,68.51
2019-02-23T18:47:29.146Z,70.93
2019-02-23T18:50:03.010Z,71.45
2019-02-23T18:52:36.482Z,71.74
2019-02-23T18:55:08.411Z,70.09
2019-02-23T18:57:41.692Z,69.02
2019-02-23T19:00:24.224Z,68.12
2019-02-23T19:02:51.606Z,67.98
2019-02-23T19:05:23.505Z,69.09
2019-02-23T19:07:57.444Z,67.62
2019-02-23T19:10:30.435Z,66.86
2019-02-23T19:13:02.078Z,67.67
2019-02-23T19:15:38.150Z,68.51
2019-02-23T19:18:09.988Z,69.10
2019-02-23T19:20:42.879Z,71.39
2019-02-23T19:23:14.742Z,72.88
2019-02-23T19:25:47.789Z,73.48
2019-02-23T19:28:19.581Z,73.49
2019-02-23T19:30:50.896Z,73.87
2019-02-23T19:33:24.385Z,73.74
2019-02-23T19:35:56.339Z,72.98
2019-02-23T19:38:30.319Z,73.38
2019-02-23T19:41:04.213Z,73.21
2019-02-23T19:43:38.023Z,73.27
2019-02-23T19:46:11.738Z,73.26
2019-02-23T19:48:43.027Z,73.39
2019-02-23T19:51:14.934Z,73.63
2019-02-23T19:53:47.768Z,74.68
2019-02-23T19:56:21.611Z,75.08
2019-02-23T19:58:54.370Z,75.48
2019-02-23T20:01:26.431Z,76.17
2019-02-23T20:04:00.264Z,76.62
2019-02-23T20:06:31.819Z,77.01
2019-02-23T20:09:05.382Z,77.33
2019-02-23T20:11:36.777Z,77.61
2019-02-23T20:14:08.057Z,77.92
2019-02-23T20:16:43.639Z,78.59
2019-02-23T20:19:15.708Z,79.40
2019-02-23T20:21:48.095Z,79.83
2019-02-23T20:24:20.597Z,80.10
2019-02-23T20:26:55.818Z,80.14
2019-02-23T20:29:28.233Z,80.22
2019-02-23T20:31:59.502Z,80.52
2019-02-23T20:34:31.515Z,80.85
2019-02-23T20:37:02.908Z,81.18
2019-02-23T20:39:35.207Z,80.78
2019-02-23T20:42:08.984Z,80.85
2019-02-23T20:44:42.825Z,81.20
2019-02-23T20:47:17.359Z,81.20
2019-02-23T20:49:50.262Z,81.87
2019-02-23T20:52:21.886Z,81.92
2019-02-23T20:54:56.951Z,82.36
2019-02-23T20:57:33.295Z,82.79
2019-02-23T21:00:06.971Z,83.12
2019-02-23T21:02:38.545Z,83.26
2019-02-23T21:05:11.010Z,83.50
2019-02-23T21:07:42.498Z,83.87
2019-02-23T21:10:15.485Z,84.52
2019-02-23T21:12:47.801Z,84.60
2019-02-23T21:15:21.525Z,84.32
2019-02-23T21:17:54.631Z,83.99
2019-02-23T21:20:26.489Z,84.10
2019-02-23T21:22:59.379Z,83.87
2019-02-23T21:25:31.466Z,83.89
2019-02-23T21:28:05.172Z,83.72
2019-02-23T21:30:36.434Z,83.44
2019-02-23T21:33:08.335Z,83.52
2019-02-23T21:35:42.806Z,83.13
2019-02-23T21:38:14.764Z,82.89
2019-02-23T21:40:48.241Z,82.71
2019-02-23T21:43:21.543Z,82.99
2019-02-23T21:45:54.440Z,83.07
2019-02-23T21:48:27.408Z,83.33
2019-02-23T21:50:58.783Z,83.81
2019-02-23T21:53:30.126Z,83.81
2019-02-23T21:56:04.105Z,83.47
2019-02-23T21:58:38.135Z,83.69
2019-02-23T22:01:12.038Z,83.64
2019-02-23T22:03:44.894Z,84.41
2019-02-23T22:06:16.798Z,84.18
2019-02-23T22:08:49.229Z,84.50
2019-02-23T22:11:21.529Z,85.09
2019-02-23T22:13:52.794Z,85.39
2019-02-23T22:16:27.760Z,85.53
2019-02-23T22:19:00.272Z,85.67
2019-02-23T22:21:32.459Z,85.91
2019-02-23T22:24:07.346Z,86.73
2019-02-23T22:26:41.140Z,87.24
2019-02-23T22:29:12.970Z,87.52
2019-02-23T22:31:44.233Z,87.71
2019-02-23T22:34:16.132Z,87.80
2019-02-23T22:36:48.434Z,88.12
2019-02-23T22:39:22.636Z,88.30
2019-02-23T22:41:56.101Z,88.73
2019-02-23T22:44:27.418Z,93.68
2019-02-23T22:47:01.368Z,93.35
2019-02-23T22:49:35.299Z,90.05
2019-02-23T22:52:06.583Z,89.59
2019-02-23T22:54:40.126Z,89.11
2019-02-23T22:57:14.116Z,89.16
2019-02-23T22:59:49.433Z,89.21
2019-02-23T23:02:25.258Z,89.00
2019-02-23T23:04:58.625Z,89.36
2019-02-23T23:07:31.420Z,89.74
2019-02-23T23:10:06.301Z,90.11
2019-02-23T23:12:40.832Z,90.31
2019-02-23T23:15:13.334Z,90.49
2019-02-23T23:17:44.682Z,90.51
2019-02-23T23:20:16.115Z,90.52
2019-02-23T23:22:48.304Z,90.29
2019-02-23T23:25:19.820Z,90.26
2019-02-23T23:27:51.843Z,89.81
2019-02-23T23:30:26.344Z,90.53
2019-02-23T23:32:58.595Z,90.61
2019-02-23T23:35:32.138Z,90.62
2019-02-23T23:38:06.335Z,90.32
2019-02-23T23:40:37.868Z,90.38
2019-02-23T23:43:12.227Z,90.57
2019-02-23T23:45:45.032Z,90.57
2019-02-23T23:48:19.059Z,90.50
2019-02-23T23:50:52.024Z,90.66
2019-02-23T23:53:23.820Z,91.21
2019-02-23T23:55:57.948Z,91.13
2019-02-23T23:58:29.210Z,91.58
